Time;durP1;ratioP1;P1;durP2;ratioP2;P2;SDS_P1;SDS_P2;PMS_P1;PMS_P2;Temp;Humidity;BMP_temperature;BMP_pressure;BME280_temperature;BME280_humidity;BME280_pressure;Samples;Min_cycle;Max_cycle;Signal;HPM_P1;HPM_P2
2021/05/23 00:00:40;;;;;;;11.43;7.40;;;15.00;81.50;;;;;;5032349;28;20060;-70
2021/05/23 00:03:10;;;;;;;8.27;4.32;;;15.10;79.40;;;;;;5034737;28;20366;-72
2021/05/23 00:05:39;;;;;;;11.85;5.13;;;15.30;78.20;;;;;;5033763;28;20033;-72
2021/05/23 00:08:09;;;;;;;10.18;5.55;;;15.40;78.10;;;;;;5031525;28;20040;-71
2021/05/23 00:10:42;;;;;;;12.82;5.30;;;15.50;78.00;;;;;;5032874;28;20021;-72
2021/05/23 00:13:11;;;;;;;10.70;5.63;;;15.40;77.20;;;;;;5033139;28;20013;-73
2021/05/23 00:15:48;;;;;;;8.63;3.85;;;15.30;78.40;;;;;;5032739;28;20037;-73
2021/05/23 00:18:16;;;;;;;8.27;4.70;;;15.20;78.90;;;;;;5032543;28;20047;-72
2021/05/23 00:20:43;;;;;;;7.10;3.20;;;15.20;78.30;;;;;;5031525;28;20053;-70
2021/05/23 00:23:11;;;;;;;9.82;4.18;;;15.10;79.20;;;;;;5033376;28;20486;-73
2021/05/23 00:25:39;;;;;;;6.90;3.80;;;15.20;78.90;;;;;;5032254;28;20045;-74
2021/05/23 00:28:08;;;;;;;11.50;5.78;;;15.20;79.40;;;;;;5030598;28;20033;-71
2021/05/23 00:30:36;;;;;;;10.07;3.50;;;15.30;80.60;;;;;;5033166;28;20044;-75
2021/05/23 00:33:05;;;;;;;7.50;3.75;;;15.40;79.80;;;;;;5031771;28;20029;-72
2021/05/23 00:35:33;;;;;;;6.25;4.00;;;15.50;79.00;;;;;;5033008;28;20028;-74
2021/05/23 00:38:00;;;;;;;7.93;3.80;;;15.60;79.50;;;;;;5031625;28;20036;-71
2021/05/23 00:40:27;;;;;;;7.63;3.72;;;15.70;79.40;;;;;;5034871;28;20037;-69
2021/05/23 00:42:54;;;;;;;9.77;4.90;;;15.90;80.00;;;;;;5032596;28;20026;-73
2021/05/23 00:45:21;;;;;;;11.52;5.68;;;16.20;79.10;;;;;;5032724;28;20025;-68
2021/05/23 00:47:48;;;;;;;8.07;4.05;;;16.30;79.10;;;;;;5032814;28;20370;-68
2021/05/23 00:50:24;;;;;;;7.32;4.38;;;16.60;78.00;;;;;;5032713;28;20029;-67
2021/05/23 00:52:54;;;;;;;10.10;4.78;;;16.90;77.30;;;;;;5032655;28;20071;-67
2021/05/23 00:55:22;;;;;;;6.32;3.28;;;17.10;77.00;;;;;;5031872;28;20478;-67
2021/05/23 00:57:50;;;;;;;5.40;3.10;;;17.50;75.10;;;;;;5031651;28;20021;-65
2021/05/23 01:00:45;;;;;;;6.78;3.67;;;17.60;73.60;;;;;;5029961;28;20060;-66
2021/05/23 01:03:32;;;;;;;6.97;3.33;;;17.70;73.40;;;;;;5031204;28;20088;-75
2021/05/23 01:06:05;;;;;;;7.25;3.03;;;18.00;72.20;;;;;;5030469;23;20119;-75
2021/05/23 01:08:34;;;;;;;4.65;2.60;;;17.90;72.10;;;;;;5032824;28;20385;-71
2021/05/23 01:11:07;;;;;;;5.13;2.28;;;17.80;73.10;;;;;;5027940;28;20025;-73
2021/05/23 01:13:37;;;;;;;;;;;17.90;72.90;;;;;;5032111;28;20057;-69
2021/05/23 01:16:24;;;;;;;3.63;2.05;;;17.90;73.10;;;;;;5030112;28;19912;-73
2021/05/23 01:18:58;;;;;;;4.43;2.20;;;18.10;72.90;;;;;;5032414;28;20781;-73
2021/05/23 01:21:28;;;;;;;5.30;2.25;;;18.10;71.40;;;;;;5029134;28;20029;-72
2021/05/23 01:24:02;;;;;;;5.65;2.88;;;18.10;70.90;;;;;;5032737;28;20033;-72
2021/05/23 01:26:48;;;;;;;4.35;2.15;;;18.00;71.70;;;;;;5029315;28;20022;-72
2021/05/23 01:29:15;;;;;;;5.45;2.03;;;18.00;71.00;;;;;;5031663;28;20014;-68
2021/05/23 01:31:42;;;;;;;7.28;1.90;;;18.00;71.90;;;;;;5032164;28;20025;-68
2021/05/23 01:34:15;;;;;;;5.63;2.25;;;18.20;71.40;;;;;;5033688;28;20029;-67
2021/05/23 01:36:42;;;;;;;6.55;2.33;;;18.20;71.00;;;;;;5029359;28;20032;-71
2021/05/23 01:39:12;;;;;;;6.22;2.00;;;18.40;71.20;;;;;;5031834;28;20061;-70
2021/05/23 01:41:42;;;;;;;4.53;1.60;;;18.60;70.30;;;;;;5033328;28;20494;-70
2021/05/23 01:44:10;;;;;;;3.60;1.90;;;18.70;70.10;;;;;;5032719;28;20032;-69
2021/05/23 01:46:38;;;;;;;6.38;3.78;;;18.80;69.40;;;;;;5031220;28;20041;-69
2021/05/23 01:49:08;;;;;;;11.93;8.32;;;18.90;69.00;;;;;;5031778;28;20106;-67
2021/05/23 01:51:36;;;;;;;5.50;1.80;;;19.10;69.90;;;;;;5032009;28;20017;-71
2021/05/23 01:54:06;;;;;;;4.28;1.50;;;19.20;68.30;;;;;;5029146;28;20029;-69
2021/05/23 01:56:33;;;;;;;5.70;1.90;;;19.20;68.30;;;;;;5029360;28;20018;-67
2021/05/23 01:59:00;;;;;;;4.70;1.80;;;19.40;68.40;;;;;;5031331;28;20522;-67
2021/05/23 02:01:27;;;;;;;4.97;1.98;;;19.50;68.30;;;;;;5031481;28;20049;-69
2021/05/23 02:03:59;;;;;;;5.60;1.85;;;19.40;67.60;;;;;;5030267;28;20505;-66
2021/05/23 02:06:26;;;;;;;;;;;19.70;67.80;;;;;;5031362;28;20030;-71
2021/05/23 02:08:53;;;;;;;4.35;2.00;;;20.10;66.00;;;;;;5030949;28;20381;-69
2021/05/23 02:11:20;;;;;;;7.55;2.30;;;20.20;65.60;;;;;;5031538;28;20138;-70
2021/05/23 02:13:52;;;;;;;5.95;1.50;;;20.20;65.80;;;;;;5029571;28;20152;-71
2021/05/23 02:16:19;;;;;;;3.80;1.35;;;20.40;66.10;;;;;;5032148;28;20871;-70
2021/05/23 02:18:46;;;;;;;4.72;2.05;;;20.70;63.80;;;;;;5030109;28;20080;-69
2021/05/23 02:21:14;;;;;;;6.93;3.13;;;20.90;64.10;;;;;;5029917;28;20030;-72
2021/05/23 02:23:53;;;;;;;4.40;1.50;;;20.80;64.40;;;;;;5031369;28;20028;-72
2021/05/23 02:26:21;;;;;;;3.95;1.65;;;20.80;63.20;;;;;;5031220;28;20039;-73
2021/05/23 02:28:48;;;;;;;2.95;1.23;;;20.80;63.10;;;;;;5030891;28;20045;-76
2021/05/23 02:31:15;;;;;;;7.05;2.28;;;20.90;62.80;;;;;;5031817;28;20071;-69
2021/05/23 02:33:42;;;;;;;4.40;1.95;;;20.90;63.90;;;;;;5029378;28;20030;-66
2021/05/23 02:36:12;;;;;;;5.20;2.30;;;21.00;62.80;;;;;;5031177;28;20551;-66
2021/05/23 02:38:45;;;;;;;3.15;1.95;;;20.90;63.40;;;;;;5030142;28;20409;-72
2021/05/23 02:41:12;;;;;;;6.15;2.30;;;21.10;63.80;;;;;;5029906;28;20032;-69
2021/05/23 02:43:39;;;;;;;5.18;1.73;;;21.40;62.80;;;;;;5026909;28;20670;-74
2021/05/23 02:46:06;;;;;;;5.40;1.70;;;21.40;61.40;;;;;;5029642;28;20044;-66
2021/05/23 02:48:33;;;;;;;3.08;1.30;;;21.50;62.00;;;;;;5028806;28;20027;-74
2021/05/23 02:51:02;;;;;;;6.38;2.25;;;21.60;61.40;;;;;;5029910;28;20457;-66
2021/05/23 02:53:30;;;;;;;3.97;1.20;;;21.70;60.80;;;;;;5027995;28;20032;-70
2021/05/23 02:55:58;;;;;;;6.22;1.50;;;21.60;61.50;;;;;;5030142;28;20351;-68
2021/05/23 02:58:25;;;;;;;3.50;1.40;;;21.70;61.50;;;;;;5027919;28;20029;-69
2021/05/23 03:00:52;;;;;;;7.15;1.92;;;21.70;61.20;;;;;;5029933;28;20040;-68
2021/05/23 03:03:19;;;;;;;4.45;1.70;;;21.70;62.30;;;;;;5029758;28;20033;-69
2021/05/23 03:05:48;;;;;;;4.50;1.75;;;21.80;61.40;;;;;;5029115;28;20038;-67
2021/05/23 03:08:18;;;;;;;4.70;1.70;;;21.70;60.80;;;;;;5028523;28;20026;-70
2021/05/23 03:10:49;;;;;;;6.13;1.70;;;21.70;62.30;;;;;;5027670;28;20552;-73
2021/05/23 03:13:16;;;;;;;7.13;2.13;;;21.90;61.40;;;;;;5027104;28;20066;-68
2021/05/23 03:15:43;;;;;;;6.90;1.55;;;21.90;61.60;;;;;;5027603;28;20029;-73
2021/05/23 03:18:11;;;;;;;4.45;1.73;;;22.00;60.10;;;;;;5029068;28;20057;-66
2021/05/23 03:20:40;;;;;;;3.42;1.55;;;22.00;60.30;;;;;;5027773;28;20040;-65
2021/05/23 03:23:07;;;;;;;6.50;2.15;;;22.10;61.40;;;;;;5030826;28;20029;-70
2021/05/23 03:25:35;;;;;;;4.05;1.90;;;21.90;61.20;;;;;;5031243;28;20033;-66
2021/05/23 03:28:03;;;;;;;4.50;1.63;;;22.00;61.60;;;;;;5031209;28;20428;-70
2021/05/23 03:30:36;;;;;;;4.35;2.08;;;22.20;61.40;;;;;;5031294;28;20151;-71
2021/05/23 03:33:04;;;;;;;4.20;1.92;;;22.20;59.10;;;;;;5028774;28;20029;-69
2021/05/23 03:35:31;;;;;;;4.88;1.70;;;22.20;60.40;;;;;;5029407;28;20025;-69
2021/05/23 03:37:58;;;;;;;4.38;1.90;;;22.20;60.70;;;;;;5029324;28;20059;-70
2021/05/23 03:40:25;;;;;;;5.30;2.17;;;22.30;60.60;;;;;;5029200;28;20485;-68
2021/05/23 03:42:53;;;;;;;3.58;1.80;;;22.30;60.00;;;;;;5028724;28;20036;-71
2021/05/23 03:45:25;;;;;;;3.08;1.30;;;22.20;60.70;;;;;;5029388;28;20028;-67
2021/05/23 03:47:55;;;;;;;5.63;1.50;;;22.10;60.30;;;;;;5027411;28;20134;-68
2021/05/23 03:50:24;;;;;;;3.40;1.50;;;22.10;60.30;;;;;;5029513;28;20025;-66
2021/05/23 03:52:56;;;;;;;5.30;2.17;;;22.10;59.90;;;;;;5028687;28;20018;-68
2021/05/23 03:55:24;;;;;;;4.65;2.20;;;21.90;59.90;;;;;;5028523;28;20025;-69
2021/05/23 03:57:52;;;;;;;3.70;1.58;;;22.00;60.70;;;;;;5026886;28;20087;-67
2021/05/23 04:00:20;;;;;;;3.28;1.42;;;22.10;59.30;;;;;;5027130;28;20059;-71
2021/05/23 04:02:52;;;;;;;3.22;1.55;;;22.30;60.40;;;;;;5028771;28;20043;-69
2021/05/23 04:05:21;;;;;;;4.13;1.50;;;22.40;59.20;;;;;;5027503;28;20041;-73
2021/05/23 04:07:48;;;;;;;3.72;1.65;;;22.40;59.40;;;;;;5028586;28;20441;-69
2021/05/23 04:10:17;;;;;;;4.90;1.55;;;22.50;59.60;;;;;;5027471;28;20041;-72
2021/05/23 04:12:47;;;;;;;3.70;1.45;;;22.70;58.00;;;;;;5026918;28;20017;-69
2021/05/23 04:15:16;;;;;;;5.30;1.80;;;22.90;58.40;;;;;;5028639;28;20037;-72
2021/05/23 04:17:43;;;;;;;3.35;1.50;;;23.20;58.20;;;;;;5027595;28;20116;-68
2021/05/23 04:20:13;;;;;;;3.17;1.50;;;23.10;56.60;;;;;;5027946;28;20034;-70
2021/05/23 04:22:41;;;;;;;3.30;1.40;;;23.00;57.70;;;;;;5027802;28;20022;-71
2021/05/23 04:25:12;;;;;;;5.63;1.38;;;22.70;59.00;;;;;;5027009;28;20029;-70
2021/05/23 04:27:41;;;;;;;4.40;1.85;;;22.30;58.40;;;;;;5026283;28;20581;-71
2021/05/23 04:30:09;;;;;;;3.92;1.88;;;21.80;60.80;;;;;;5027524;28;20108;-70
2021/05/23 04:32:37;;;;;;;3.65;1.58;;;21.80;62.00;;;;;;5028207;28;20018;-70
2021/05/23 04:35:06;;;;;;;4.93;1.58;;;21.80;60.90;;;;;;5029190;28;20056;-70
2021/05/23 04:37:33;;;;;;;4.80;1.52;;;21.40;62.00;;;;;;5028465;28;20017;-71
2021/05/23 04:40:00;;;;;;;4.07;1.77;;;21.30;63.00;;;;;;5027780;28;20034;-68
2021/05/23 04:42:27;;;;;;;10.77;3.63;;;21.20;63.20;;;;;;5026933;28;20031;-69
2021/05/23 04:44:54;;;;;;;5.18;1.83;;;21.20;63.40;;;;;;5031290;28;20043;-73
2021/05/23 04:47:24;;;;;;;4.95;1.55;;;21.20;63.80;;;;;;5032327;28;20018;-68
2021/05/23 04:49:55;;;;;;;3.17;1.67;;;21.10;64.60;;;;;;4827580;28;10000691;-73
2021/05/23 04:52:22;;;;;;;5.32;1.60;;;21.00;64.50;;;;;;5028909;28;20232;-67
2021/05/23 04:54:49;;;;;;;3.58;1.35;;;20.90;65.70;;;;;;5030068;28;20502;-67
2021/05/23 04:57:16;;;;;;;4.32;1.98;;;20.90;66.00;;;;;;5029107;28;20036;-69
2021/05/23 04:59:43;;;;;;;3.22;1.45;;;20.90;65.40;;;;;;5029262;28;20033;-68
2021/05/23 05:02:10;;;;;;;4.43;1.65;;;20.80;66.00;;;;;;5028115;28;20096;-74
2021/05/23 05:04:37;;;;;;;5.20;1.48;;;20.70;66.20;;;;;;5029677;28;20386;-70
2021/05/23 05:07:07;;;;;;;3.97;1.60;;;20.70;66.90;;;;;;5029932;28;20489;-69
2021/05/23 05:09:37;;;;;;;3.50;1.75;;;20.70;65.90;;;;;;5029621;28;20079;-71
2021/05/23 05:12:07;;;;;;;5.20;1.80;;;20.60;66.60;;;;;;5030989;28;20105;-71
2021/05/23 05:14:40;;;;;;;4.13;1.88;;;20.50;67.60;;;;;;5029148;28;20052;-67
2021/05/23 05:17:06;;;;;;;;;;;20.50;68.00;;;;;;5023548;28;20077;-69
2021/05/23 05:19:33;;;;;;;4.57;1.90;;;20.50;67.40;;;;;;5028810;28;19913;-70
2021/05/23 05:22:03;;;;;;;6.53;2.03;;;20.50;67.40;;;;;;5030977;28;20489;-68
2021/05/23 05:24:30;;;;;;;6.95;2.83;;;20.50;67.70;;;;;;5031148;28;20060;-70
2021/05/23 05:26:57;;;;;;;4.90;2.05;;;20.50;67.60;;;;;;5028294;28;20065;-70
2021/05/23 05:29:24;;;;;;;5.32;1.92;;;20.40;67.30;;;;;;5028212;28;20595;-70
2021/05/23 05:31:52;;;;;;;3.65;1.48;;;20.40;68.10;;;;;;4681627;28;10000574;-70
2021/05/23 05:34:19;;;;;;;4.55;1.55;;;20.20;67.20;;;;;;5027124;28;20507;-74
2021/05/23 05:36:46;;;;;;;2.30;1.17;;;20.20;68.00;;;;;;5027781;28;20156;-70
2021/05/23 05:39:15;;;;;;;2.80;1.20;;;20.10;68.00;;;;;;5024603;28;20123;-71
2021/05/23 05:41:42;;;;;;;3.17;1.40;;;20.10;67.50;;;;;;5018804;28;20372;-70
2021/05/23 05:44:13;;;;;;;3.42;1.15;;;19.90;68.10;;;;;;5026082;28;20567;-70
2021/05/23 05:46:40;;;;;;;4.63;1.35;;;19.90;69.20;;;;;;5025964;28;20026;-69
2021/05/23 05:49:07;;;;;;;2.53;1.35;;;19.80;69.40;;;;;;5021192;28;20387;-69
2021/05/23 05:51:33;;;;;;;3.30;1.10;;;19.60;70.00;;;;;;5026254;28;20470;-71
2021/05/23 05:54:00;;;;;;;4.20;2.10;;;19.60;70.50;;;;;;5024816;28;20060;-70
2021/05/23 05:56:27;;;;;;;6.55;1.50;;;19.60;71.10;;;;;;5024940;28;20851;-74
2021/05/23 05:58:54;;;;;;;2.90;1.10;;;19.50;70.50;;;;;;5025815;28;20056;-69
2021/05/23 06:01:21;;;;;;;3.90;1.00;;;19.40;71.70;;;;;;5040045;28;20449;-71
2021/05/23 06:03:48;;;;;;;4.50;1.85;;;19.40;72.00;;;;;;5026112;28;20021;-73
2021/05/23 06:06:15;;;;;;;5.60;1.75;;;19.30;72.40;;;;;;5040499;28;20048;-71
2021/05/23 06:08:42;;;;;;;2.75;1.17;;;19.30;72.60;;;;;;5025067;28;20453;-69
2021/05/23 06:11:09;;;;;;;4.72;1.08;;;19.20;73.40;;;;;;5037817;28;20513;-68
2021/05/23 06:13:36;;;;;;;5.82;1.42;;;19.20;73.90;;;;;;5025224;28;20389;-69
2021/05/23 06:16:03;;;;;;;4.38;1.00;;;19.10;74.80;;;;;;5026578;28;20025;-68
2021/05/23 06:18:33;;;;;;;2.25;1.10;;;19.10;75.00;;;;;;5024539;28;20079;-72
2021/05/23 06:21:00;;;;;;;3.85;1.35;;;19.00;75.10;;;;;;5024179;28;20488;-68
2021/05/23 06:23:27;;;;;;;4.18;1.25;;;18.90;75.70;;;;;;5023261;28;20111;-69
2021/05/23 06:25:54;;;;;;;5.75;1.40;;;18.80;75.90;;;;;;5026096;28;20033;-75
2021/05/23 06:28:21;;;;;;;3.85;1.13;;;18.70;76.50;;;;;;5026689;28;20021;-73
2021/05/23 06:30:51;;;;;;;5.18;1.52;;;18.70;77.40;;;;;;5026794;28;20088;-69
2021/05/23 06:33:21;;;;;;;4.00;1.40;;;18.50;77.70;;;;;;5026179;28;20022;-65
2021/05/23 06:35:50;;;;;;;3.13;1.00;;;18.50;78.20;;;;;;5026900;28;20026;-70
2021/05/23 06:38:17;;;;;;;5.22;1.10;;;18.30;78.50;;;;;;5025138;28;20030;-72
2021/05/23 06:40:44;;;;;;;6.18;1.70;;;18.30;79.00;;;;;;5026103;28;20028;-75
2021/05/23 06:43:11;;;;;;;3.13;1.25;;;18.20;79.20;;;;;;5025744;28;20749;-69
2021/05/23 06:45:38;;;;;;;9.25;2.00;;;18.10;79.70;;;;;;5025889;28;20030;-70
2021/05/23 06:48:06;;;;;;;3.50;2.03;;;18.00;80.10;;;;;;5025532;28;20104;-70
2021/05/23 06:50:33;;;;;;;2.90;1.90;;;17.90;80.30;;;;;;5025028;28;20028;-68
2021/05/23 06:52:59;;;;;;;5.15;1.83;;;17.80;80.70;;;;;;5025648;28;20034;-67
2021/05/23 06:55:26;;;;;;;3.15;1.80;;;17.80;81.80;;;;;;5028393;28;20026;-68
2021/05/23 06:57:53;;;;;;;7.78;2.33;;;17.70;81.10;;;;;;5027386;28;20071;-69
2021/05/23 07:00:21;;;;;;;4.38;1.73;;;17.60;81.50;;;;;;5026464;28;20459;-69
2021/05/23 07:02:49;;;;;;;4.10;1.83;;;17.60;81.70;;;;;;5029956;28;20029;-68
2021/05/23 07:05:16;;;;;;;3.65;1.95;;;17.50;82.10;;;;;;5027601;28;20156;-67
2021/05/23 07:07:43;;;;;;;3.45;1.60;;;17.30;82.30;;;;;;5028964;28;20018;-70
2021/05/23 07:10:10;;;;;;;6.50;2.15;;;17.30;82.70;;;;;;5028669;28;20030;-69
2021/05/23 07:12:40;;;;;;;5.70;2.72;;;17.20;83.30;;;;;;5029020;28;20033;-68
2021/05/23 07:15:10;;;;;;;4.25;2.67;;;17.10;84.20;;;;;;5027289;28;20112;-70
2021/05/23 07:17:37;;;;;;;4.63;2.63;;;17.00;84.20;;;;;;5027341;28;20489;-68
2021/05/23 07:20:05;;;;;;;5.90;2.65;;;16.90;84.30;;;;;;5025953;28;20044;-68
2021/05/23 07:22:33;;;;;;;7.20;2.47;;;16.90;84.70;;;;;;5026448;28;20485;-67
2021/05/23 07:24:59;;;;;;;3.55;2.13;;;16.80;84.50;;;;;;5029037;28;20075;-71
2021/05/23 07:27:30;;;;;;;4.60;2.08;;;16.80;85.00;;;;;;5028113;28;20021;-68
2021/05/23 07:30:00;;;;;;;4.60;1.67;;;16.70;85.40;;;;;;5027992;28;20083;-68
2021/05/23 07:32:27;;;;;;;3.65;1.88;;;16.60;86.20;;;;;;5025802;28;20113;-71
2021/05/23 07:34:53;;;;;;;9.82;3.42;;;16.50;86.40;;;;;;5027162;28;20036;-70
2021/05/23 07:37:21;;;;;;;7.28;3.08;;;16.50;86.70;;;;;;5026507;28;20112;-66
2021/05/23 07:39:48;;;;;;;7.25;4.82;;;16.60;86.60;;;;;;5027777;28;20079;-66
2021/05/23 07:42:15;;;;;;;8.10;5.38;;;16.50;87.00;;;;;;5027546;28;20715;-71
2021/05/23 07:44:41;;;;;;;7.10;5.50;;;16.40;88.10;;;;;;5027636;28;20505;-69
2021/05/23 07:47:08;;;;;;;6.13;3.90;;;16.50;88.10;;;;;;5029058;28;20109;-69
2021/05/23 07:49:40;;;;;;;9.68;3.83;;;16.40;88.60;;;;;;5028441;28;20105;-70
2021/05/23 07:52:11;;;;;;;4.17;2.63;;;16.40;89.10;;;;;;5025831;28;20469;-69
2021/05/23 07:54:40;;;;;;;5.72;2.10;;;16.40;88.50;;;;;;5027470;28;20258;-70
2021/05/23 07:57:07;;;;;;;6.45;2.60;;;16.40;88.10;;;;;;5028603;28;20394;-69
2021/05/23 07:59:35;;;;;;;7.63;3.35;;;16.30;88.30;;;;;;5027675;28;20037;-69
2021/05/23 08:02:05;;;;;;;5.25;2.38;;;16.20;88.60;;;;;;5034060;28;20389;-72
2021/05/23 08:04:35;;;;;;;5.88;3.03;;;16.20;89.50;;;;;;5026758;28;20964;-71
2021/05/23 08:07:02;;;;;;;5.07;2.25;;;16.10;90.00;;;;;;5028119;28;20501;-73
2021/05/23 08:09:29;;;;;;;7.43;4.70;;;16.00;90.40;;;;;;5027893;28;20044;-73
2021/05/23 08:11:56;;;;;;;4.05;2.40;;;15.90;90.70;;;;;;5028322;28;20021;-71
2021/05/23 08:14:23;;;;;;;3.28;1.52;;;15.70;90.60;;;;;;5026950;28;20097;-69
2021/05/23 08:16:50;;;;;;;4.88;2.00;;;15.60;90.90;;;;;;5028248;28;20032;-69
2021/05/23 08:19:17;;;;;;;3.38;1.50;;;15.50;91.20;;;;;;5029727;28;20494;-71
2021/05/23 08:21:44;;;;;;;7.32;1.83;;;15.40;91.30;;;;;;5031981;28;20025;-74
2021/05/23 08:24:11;;;;;;;4.07;1.77;;;15.30;91.40;;;;;;5023837;28;20043;-72
2021/05/23 08:26:39;;;;;;;5.03;1.83;;;15.30;91.50;;;;;;5029834;28;20044;-73
2021/05/23 08:29:09;;;;;;;4.88;1.95;;;15.30;91.50;;;;;;5028287;28;20073;-69
2021/05/23 08:31:36;;;;;;;5.55;1.52;;;15.20;91.70;;;;;;5031479;28;20018;-71
2021/05/23 08:34:03;;;;;;;5.80;1.40;;;15.20;92.00;;;;;;5022898;28;20108;-72
2021/05/23 08:36:31;;;;;;;3.80;1.25;;;15.30;91.40;;;;;;5029555;28;20563;-72
2021/05/23 08:38:57;;;;;;;6.00;1.65;;;15.30;91.70;;;;;;5027735;28;20112;-71
2021/05/23 08:41:25;;;;;;;5.30;1.20;;;15.40;91.70;;;;;;5027940;28;20517;-68
2021/05/23 08:43:53;;;;;;;5.55;1.73;;;15.40;91.30;;;;;;5029643;28;20020;-73
2021/05/23 08:46:21;;;;;;;8.90;1.80;;;15.30;91.70;;;;;;5030318;28;20032;-71
2021/05/23 08:48:49;;;;;;;4.30;1.55;;;15.30;91.80;;;;;;5030172;28;20035;-70
2021/05/23 08:51:17;;;;;;;6.43;1.73;;;15.20;91.90;;;;;;5030171;28;20044;-71
2021/05/23 08:53:44;;;;;;;8.73;2.20;;;15.00;92.00;;;;;;5028147;28;20025;-70
2021/05/23 08:56:11;;;;;;;5.60;2.03;;;15.00;92.30;;;;;;5028745;28;20045;-70
2021/05/23 08:58:38;;;;;;;4.18;1.83;;;14.90;92.30;;;;;;5028930;28;20572;-69
2021/05/23 09:01:05;;;;;;;6.53;1.75;;;14.80;92.40;;;;;;5027321;28;20124;-68
2021/05/23 09:03:33;;;;;;;11.27;7.63;;;14.80;92.40;;;;;;5028996;28;20029;-70
2021/05/23 09:06:00;;;;;;;15.52;8.90;;;14.70;92.40;;;;;;5029535;28;20060;-69
2021/05/23 09:08:31;;;;;;;7.65;2.20;;;14.70;92.50;;;;;;5028249;28;20126;-68
2021/05/23 09:11:04;;;;;;;6.78;2.45;;;14.60;92.70;;;;;;5028696;28;20025;-71
2021/05/23 09:13:33;;;;;;;8.02;2.22;;;14.60;92.80;;;;;;5028405;28;20664;-70
2021/05/23 09:16:13;;;;;;;6.78;2.08;;;14.60;92.70;;;;;;5029570;28;20037;-70
2021/05/23 09:18:43;;;;;;;5.57;1.58;;;14.50;92.90;;;;;;5028220;28;20025;-70
2021/05/23 09:21:11;;;;;;;8.75;2.50;;;14.50;92.80;;;;;;5027886;28;20083;-70
2021/05/23 09:23:54;;;;;;;7.75;2.08;;;14.40;92.80;;;;;;5028987;28;20553;-69
2021/05/23 09:26:27;;;;;;;5.30;1.92;;;14.40;93.00;;;;;;5031095;28;20112;-68
2021/05/23 09:29:01;;;;;;;6.70;3.45;;;14.30;93.20;;;;;;5021149;28;20022;-69
2021/05/23 09:31:30;;;;;;;10.02;4.65;;;14.20;93.40;;;;;;5025021;28;20113;-66
2021/05/23 09:33:57;;;;;;;5.93;3.90;;;14.30;93.00;;;;;;5026346;28;20373;-68
2021/05/23 09:36:25;;;;;;;7.32;3.08;;;14.20;93.00;;;;;;5026198;28;20024;-68
2021/05/23 09:39:03;;;;;;;7.47;2.67;;;14.10;93.20;;;;;;5019595;28;20032;-69
2021/05/23 09:41:38;;;;;;;9.80;2.58;;;14.00;93.30;;;;;;5026102;28;20033;-67
2021/05/23 09:44:25;;;;;;;5.68;2.22;;;13.90;93.30;;;;;;5025214;28;20082;-68
2021/05/23 09:47:00;;;;;;;8.07;2.15;;;13.90;93.60;;;;;;5025495;28;20192;-68
2021/05/23 09:49:53;;;;;;;6.82;2.00;;;13.80;93.70;;;;;;5025072;28;20029;-68
2021/05/23 09:52:35;;;;;;;6.15;3.55;;;13.80;93.50;;;;;;5039686;28;20075;-71
2021/05/23 09:55:03;;;;;;;4.45;2.05;;;13.80;93.80;;;;;;5024500;28;20095;-70
2021/05/23 09:57:30;;;;;;;6.93;1.88;;;13.80;93.60;;;;;;5025594;28;20025;-67
2021/05/23 10:00:16;;;;;;;8.02;2.67;;;13.80;93.60;;;;;;5025194;28;20029;-74
2021/05/23 10:02:55;;;;;;;3.30;2.47;;;13.70;93.70;;;;;;5019924;28;20757;-69
2021/05/23 10:05:26;;;;;;;5.15;2.45;;;13.60;93.60;;;;;;5020942;28;20049;-69
2021/05/23 10:07:56;;;;;;;5.65;2.55;;;13.50;93.80;;;;;;5023536;28;20021;-73
2021/05/23 10:10:27;;;;;;;4.97;2.95;;;13.50;94.10;;;;;;5023076;28;20033;-71
2021/05/23 10:12:59;;;;;;;7.25;3.40;;;13.50;94.10;;;;;;5024748;28;20147;-66
2021/05/23 10:15:26;;;;;;;5.65;2.95;;;13.50;94.00;;;;;;5024281;28;20029;-68
2021/05/23 10:17:57;;;;;;;9.00;3.80;;;13.60;93.80;;;;;;5022814;28;20084;-67
2021/05/23 10:20:28;;;;;;;7.03;3.63;;;13.60;93.70;;;;;;5021975;28;20079;-72
2021/05/23 10:23:00;;;;;;;7.82;3.55;;;13.70;93.40;;;;;;5022535;28;20333;-65
2021/05/23 10:25:28;;;;;;;10.17;3.47;;;13.70;93.40;;;;;;5023157;28;20036;-67
2021/05/23 10:28:01;;;;;;;6.07;3.33;;;13.70;93.30;;;;;;5016719;28;20030;-67
2021/05/23 10:30:28;;;;;;;7.05;3.55;;;13.60;93.20;;;;;;5019922;28;20026;-67
2021/05/23 10:32:55;;;;;;;7.28;4.47;;;13.50;93.50;;;;;;5023531;28;20486;-66
2021/05/23 10:35:26;;;;;;;8.13;3.33;;;13.40;93.60;;;;;;5021970;28;20048;-68
2021/05/23 10:37:54;;;;;;;7.25;4.03;;;13.40;93.90;;;;;;5022798;28;20496;-66
2021/05/23 10:40:28;;;;;;;8.70;5.28;;;13.30;93.80;;;;;;5022989;28;20033;-67
2021/05/23 10:43:00;;;;;;;10.23;4.25;;;13.20;94.00;;;;;;5024105;28;20029;-65
2021/05/23 10:45:32;;;;;;;7.88;4.53;;;13.20;93.90;;;;;;5023944;28;20041;-67
2021/05/23 10:48:19;;;;;;;6.38;3.95;;;13.10;94.30;;;;;;5023534;28;20084;-65
2021/05/23 10:50:47;;;;;;;7.47;3.45;;;13.10;94.10;;;;;;5023609;28;20761;-65
2021/05/23 10:53:15;;;;;;;8.13;3.67;;;13.00;94.10;;;;;;5008162;28;20061;-65
2021/05/23 10:55:51;;;;;;;8.57;3.13;;;12.90;94.60;;;;;;5021936;28;20390;-65
2021/05/23 10:58:26;;;;;;;5.85;2.80;;;12.90;94.30;;;;;;5024667;28;20033;-67
2021/05/23 11:00:55;;;;;;;4.50;3.15;;;12.90;94.30;;;;;;5024775;28;20480;-69
2021/05/23 11:03:27;;;;;;;3.58;2.70;;;12.80;94.30;;;;;;5025127;28;20023;-65
2021/05/23 11:06:05;;;;;;;7.88;3.33;;;12.80;94.50;;;;;;5023878;28;20049;-67
2021/05/23 11:08:33;;;;;;;7.20;3.00;;;12.90;94.60;;;;;;5020827;28;20025;-67
2021/05/23 11:11:00;;;;;;;8.65;3.05;;;12.90;94.60;;;;;;5022574;28;20026;-69
2021/05/23 11:13:30;;;;;;;5.35;3.08;;;13.00;94.60;;;;;;5023762;28;20466;-68
2021/05/23 11:16:19;;;;;;;8.68;2.80;;;13.10;94.10;;;;;;5024288;28;20033;-68
2021/05/23 11:18:46;;;;;;;7.03;3.17;;;13.20;94.30;;;;;;5023061;28;20022;-68
2021/05/23 11:21:17;;;;;;;9.15;3.10;;;13.30;94.00;;;;;;5022045;28;20042;-68
2021/05/23 11:23:56;;;;;;;4.28;2.85;;;13.40;93.80;;;;;;5022930;28;20032;-67
2021/05/23 11:26:25;;;;;;;9.20;3.63;;;13.50;93.30;;;;;;5022426;28;20021;-70
2021/05/23 11:28:55;;;;;;;5.53;2.30;;;13.70;93.00;;;;;;5026911;28;20017;-70
2021/05/23 11:31:37;;;;;;;7.50;2.53;;;13.80;92.70;;;;;;5023498;28;20025;-70
2021/05/23 11:34:08;;;;;;;8.18;2.70;;;13.80;92.60;;;;;;5024501;28;20393;-68
2021/05/23 11:36:42;;;;;;;4.00;2.47;;;13.80;92.50;;;;;;5026711;28;20113;-70
2021/05/23 11:39:14;;;;;;;6.75;2.45;;;13.70;92.70;;;;;;5027769;28;20057;-66
2021/05/23 11:41:43;;;;;;;4.63;2.72;;;13.70;92.90;;;;;;5028439;28;20017;-66
2021/05/23 11:44:14;;;;;;;5.30;2.55;;;13.70;92.70;;;;;;5025171;28;20029;-69
2021/05/23 11:46:54;;;;;;;6.78;2.65;;;13.70;92.80;;;;;;5025496;28;20010;-66
2021/05/23 11:49:22;;;;;;;5.28;2.30;;;13.70;92.90;;;;;;5024582;28;20079;-67
2021/05/23 11:51:50;;;;;;;4.40;2.50;;;13.60;93.10;;;;;;5026032;28;20381;-69
2021/05/23 11:54:18;;;;;;;4.88;2.90;;;13.80;92.60;;;;;;5028103;28;20056;-69
2021/05/23 11:56:45;;;;;;;5.05;2.38;;;13.80;92.50;;;;;;5031524;28;20049;-69
2021/05/23 11:59:12;;;;;;;4.95;2.85;;;13.70;92.60;;;;;;5030541;28;20025;-69
2021/05/23 12:01:40;;;;;;;5.43;2.55;;;13.70;92.40;;;;;;5030714;28;20313;-68
2021/05/23 12:04:13;;;;;;;6.85;2.90;;;13.70;92.40;;;;;;5030206;28;20032;-69
2021/05/23 12:06:48;;;;;;;5.85;2.70;;;13.70;92.50;;;;;;5030566;28;20029;-68
2021/05/23 12:09:17;;;;;;;4.82;2.10;;;13.70;92.50;;;;;;5031311;28;20025;-67
2021/05/23 12:11:51;;;;;;;6.93;2.70;;;13.60;92.70;;;;;;5031057;28;20037;-69
2021/05/23 12:14:32;;;;;;;5.95;2.80;;;13.50;92.70;;;;;;5030427;28;20104;-68
2021/05/23 12:17:03;;;;;;;5.40;2.35;;;13.50;92.70;;;;;;5031066;28;20601;-67
2021/05/23 12:19:54;;;;;;;4.65;2.42;;;13.40;92.80;;;;;;5028718;28;20032;-66
2021/05/23 12:22:39;;;;;;;4.50;2.45;;;13.40;93.00;;;;;;5030608;28;20105;-69
2021/05/23 12:25:06;;;;;;;7.95;2.70;;;13.30;93.10;;;;;;5028518;28;20026;-66
2021/05/23 12:27:46;;;;;;;5.05;2.30;;;13.20;93.40;;;;;;5030688;28;20025;-69
2021/05/23 12:30:25;;;;;;;5.93;3.00;;;13.30;93.50;;;;;;5022540;28;20029;-68
2021/05/23 12:33:00;;;;;;;5.05;2.45;;;13.30;93.30;;;;;;5029013;28;20410;-65
2021/05/23 12:35:33;;;;;;;4.60;2.72;;;13.40;93.20;;;;;;5030688;28;20490;-65
2021/05/23 12:38:21;;;;;;;3.50;2.40;;;13.40;92.80;;;;;;5030152;28;20075;-69
2021/05/23 12:40:52;;;;;;;9.35;2.72;;;13.40;92.80;;;;;;5030454;28;20557;-67
2021/05/23 12:43:24;;;;;;;6.05;2.88;;;13.50;92.70;;;;;;5030310;28;20071;-67
2021/05/23 12:45:56;;;;;;;6.63;2.63;;;13.50;92.70;;;;;;5029832;28;20025;-68
2021/05/23 12:48:31;;;;;;;4.45;2.72;;;13.40;92.80;;;;;;5028059;28;20116;-68
2021/05/23 12:50:58;;;;;;;5.65;3.13;;;13.40;92.70;;;;;;5030483;28;20477;-68
2021/05/23 12:53:34;;;;;;;5.55;2.80;;;13.30;92.80;;;;;;5030153;28;20037;-66
2021/05/23 12:56:20;;;;;;;7.80;2.75;;;13.30;93.20;;;;;;5029621;28;20750;-66
2021/05/23 12:58:52;;;;;;;8.93;3.15;;;13.20;93.40;;;;;;5029646;28;20063;-69
2021/05/23 13:01:22;;;;;;;4.55;2.63;;;13.20;93.20;;;;;;5030537;28;20036;-65